Time;durP1;ratioP1;P1;durP2;ratioP2;P2;SDS_P1;SDS_P2;PMS_P1;PMS_P2;Temp;Humidity;BMP_temperature;BMP_pressure;BME280_temperature;BME280_humidity;BME280_pressure;Samples;Min_cycle;Max_cycle;Signal;HPM_P1;HPM_P2
2022/02/06 00:00:48;;;;;;;10.40;1.48;;;11.20;95.30;;;;;;5031504;28;20093;-68
2022/02/06 00:03:14;;;;;;;10.93;1.80;;;11.30;95.40;;;;;;5015381;28;20473;-69
2022/02/06 00:05:40;;;;;;;9.50;1.92;;;11.20;95.50;;;;;;5032096;28;20083;-69
2022/02/06 00:08:10;;;;;;;7.95;1.40;;;11.30;95.90;;;;;;5026224;28;20022;-68
2022/02/06 00:10:37;;;;;;;11.30;1.40;;;11.30;96.20;;;;;;5023747;28;20763;-68
2022/02/06 00:13:03;;;;;;;11.20;1.80;;;11.30;96.30;;;;;;5031376;28;20025;-68
2022/02/06 00:15:29;;;;;;;10.43;1.67;;;11.30;96.70;;;;;;5014560;28;20098;-68
2022/02/06 00:17:54;;;;;;;9.57;1.40;;;11.30;96.60;;;;;;5032240;28;20037;-68
2022/02/06 00:20:22;;;;;;;13.20;1.60;;;11.30;96.70;;;;;;5020848;28;20037;-68
2022/02/06 00:22:53;;;;;;;6.88;1.48;;;11.30;96.80;;;;;;5019639;28;20057;-69
2022/02/06 00:28:23;;;;;;;9.80;1.80;;;11.30;97.10;;;;;;5030725;28;20101;-68
2022/02/06 00:30:51;;;;;;;6.60;1.20;;;11.30;97.10;;;;;;5013154;28;20121;-68
2022/02/06 00:38:03;;;;;;;10.95;1.40;;;11.40;97.40;;;;;;5016697;28;20088;-69
2022/02/06 00:41:25;;;;;;;8.82;1.85;;;11.30;97.80;;;;;;5019057;28;20042;-69
2022/02/06 00:43:52;;;;;;;14.35;1.60;;;11.30;97.70;;;;;;5024413;28;20044;-69
2022/02/06 00:46:20;;;;;;;8.27;1.70;;;11.30;97.90;;;;;;5027451;28;20044;-68
2022/02/06 00:48:51;;;;;;;10.48;1.58;;;11.30;98.00;;;;;;5016786;28;20021;-69
2022/02/06 00:52:08;;;;;;;10.25;1.40;;;11.30;98.00;;;;;;5014610;28;20501;-68
2022/02/06 00:54:06;;;;;;;7.28;1.38;;;11.30;98.10;;;;;;5011766;28;20579;-69
2022/02/06 00:56:32;;;;;;;9.73;1.20;;;11.30;98.20;;;;;;5030637;28;20046;-68
2022/02/06 00:58:58;;;;;;;7.47;1.58;;;11.30;98.30;;;;;;5023169;28;20049;-68
2022/02/06 01:01:24;;;;;;;14.60;1.98;;;11.30;98.40;;;;;;5018868;28;20488;-68
2022/02/06 01:03:49;;;;;;;10.35;1.48;;;11.30;98.40;;;;;;5016077;28;20032;-68
2022/02/06 01:06:15;;;;;;;7.88;1.20;;;11.30;98.50;;;;;;5030361;28;20065;-68
2022/02/06 01:08:41;;;;;;;8.80;1.33;;;11.30;98.40;;;;;;5018275;28;20030;-68
2022/02/06 01:11:10;;;;;;;7.90;1.45;;;11.30;98.40;;;;;;5026520;28;20029;-69
2022/02/06 01:13:49;;;;;;;10.05;1.60;;;11.30;98.40;;;;;;5029659;28;20060;-68
2022/02/06 01:16:21;;;;;;;12.05;1.67;;;11.30;98.40;;;;;;5028634;28;20029;-68
2022/02/06 01:19:01;;;;;;;7.85;1.27;;;11.30;98.40;;;;;;5016219;28;20455;-68
2022/02/06 01:24:43;;;;;;;;;;;11.40;98.50;;;;;;5026470;28;20078;-69
2022/02/06 01:27:22;;;;;;;;;;;11.40;98.40;;;;;;5024374;28;20313;-69
2022/02/06 01:32:24;;;;;;;9.13;1.33;;;11.30;98.60;;;;;;5022672;28;20471;-68
2022/02/06 01:34:55;;;;;;;9.60;1.40;;;11.30;98.70;;;;;;5026559;28;20025;-68
2022/02/06 01:37:31;;;;;;;11.60;1.40;;;11.30;98.70;;;;;;5026618;28;20128;-69
2022/02/06 01:40:09;;;;;;;9.40;1.33;;;11.30;98.70;;;;;;5027078;28;20041;-68
2022/02/06 01:42:43;;;;;;;10.00;1.95;;;11.30;98.80;;;;;;5011099;28;20400;-69
2022/02/06 01:45:26;;;;;;;10.43;1.42;;;11.30;98.70;;;;;;5024045;28;20057;-69
2022/02/06 02:06:51;;;;;;;13.25;1.30;;;11.30;98.60;;;;;;5012717;28;20025;-69
2022/02/06 02:09:36;;;;;;;8.65;1.42;;;11.30;98.70;;;;;;5026914;28;20029;-69
2022/02/06 02:16:24;;;;;;;12.98;1.42;;;11.30;98.90;;;;;;5022987;28;20115;-68
2022/02/06 02:45:22;;;;;;;13.30;1.60;;;11.30;99.40;;;;;;5025151;28;20092;-68
2022/02/06 02:47:51;;;;;;;12.88;1.50;;;11.30;99.50;;;;;;5025154;28;20444;-68
2022/02/06 02:50:21;;;;;;;9.98;1.75;;;11.30;99.60;;;;;;5027723;28;20068;-69
2022/02/06 02:52:58;;;;;;;8.77;1.52;;;11.30;99.70;;;;;;5019244;28;20044;-68
2022/02/06 03:03:21;;;;;;;11.88;1.70;;;11.30;99.80;;;;;;5028320;28;20046;-68
2022/02/06 03:05:50;;;;;;;17.55;1.70;;;11.40;99.80;;;;;;5027777;28;20044;-68
2022/02/06 03:08:16;;;;;;;12.02;1.38;;;11.40;99.80;;;;;;5027597;28;20484;-68
2022/02/06 03:10:43;;;;;;;7.13;1.30;;;11.40;99.80;;;;;;5023249;28;20033;-68
2022/02/06 03:13:12;;;;;;;11.18;1.45;;;11.40;99.80;;;;;;5016969;28;20084;-68
2022/02/06 03:15:45;;;;;;;12.90;1.70;;;11.40;99.80;;;;;;5012696;28;20033;-68
2022/02/06 03:18:18;;;;;;;12.63;1.52;;;11.40;99.80;;;;;;5012413;28;20018;-68
2022/02/06 03:20:44;;;;;;;13.82;1.75;;;11.40;99.90;;;;;;5028905;28;20037;-68
2022/02/06 03:23:11;;;;;;;12.00;1.55;;;11.40;99.90;;;;;;5018604;28;20026;-68
2022/02/06 03:25:53;;;;;;;14.80;2.08;;;11.40;99.90;;;;;;5016640;28;20500;-68
2022/02/06 03:28:23;;;;;;;14.68;2.03;;;11.40;99.90;;;;;;5016714;28;20372;-68
2022/02/06 03:30:50;;;;;;;13.55;1.75;;;11.30;99.90;;;;;;5014477;28;20033;-67
2022/02/06 03:33:16;;;;;;;13.25;1.67;;;11.30;99.90;;;;;;5012313;28;20053;-69
2022/02/06 03:35:42;;;;;;;12.13;1.80;;;11.30;99.90;;;;;;5026274;28;20088;-68
2022/02/06 03:38:08;;;;;;;8.88;1.63;;;11.30;99.90;;;;;;5027022;28;20053;-68
2022/02/06 03:40:43;;;;;;;12.35;1.70;;;11.30;99.90;;;;;;5027651;28;20040;-68
2022/02/06 03:48:44;;;;;;;12.88;2.03;;;11.30;99.90;;;;;;5005156;28;20045;-68
2022/02/06 03:51:18;;;;;;;9.93;1.70;;;11.30;99.90;;;;;;5002844;28;20041;-68
2022/02/06 03:53:46;;;;;;;11.90;1.50;;;11.30;99.90;;;;;;5006119;28;20037;-68
2022/02/06 03:56:12;;;;;;;14.60;1.63;;;11.30;99.90;;;;;;5005300;28;20111;-68
2022/02/06 03:58:38;;;;;;;13.75;2.42;;;11.30;99.90;;;;;;5004904;28;20109;-68
2022/02/06 04:01:04;;;;;;;13.23;1.75;;;11.30;99.90;;;;;;5005250;28;20604;-68
2022/02/06 04:03:30;;;;;;;11.35;1.70;;;11.30;99.90;;;;;;5005218;28;20080;-68
2022/02/06 04:05:56;;;;;;;16.00;1.70;;;11.30;99.90;;;;;;5009553;28;20034;-68
2022/02/06 04:08:22;;;;;;;12.45;1.80;;;11.30;99.90;;;;;;5008408;28;20060;-69
2022/02/06 04:10:51;;;;;;;13.77;2.10;;;11.30;99.90;;;;;;5008459;28;20116;-68
2022/02/06 04:13:22;;;;;;;12.55;1.90;;;11.30;99.90;;;;;;5008650;28;20030;-68
2022/02/06 04:15:50;;;;;;;;;;;11.30;99.90;;;;;;5009049;28;20045;-68
2022/02/06 04:18:24;;;;;;;15.75;1.77;;;11.30;99.90;;;;;;5011471;28;19909;-68
2022/02/06 04:20:50;;;;;;;13.75;1.95;;;11.30;99.90;;;;;;5008209;28;20041;-68
2022/02/06 04:23:15;;;;;;;14.40;2.03;;;11.20;99.90;;;;;;5008108;28;20539;-69
2022/02/06 04:25:41;;;;;;;16.65;2.33;;;11.20;99.90;;;;;;5019000;28;20112;-68
2022/02/06 04:28:07;;;;;;;14.05;2.15;;;11.30;99.90;;;;;;5019552;28;20052;-69
2022/02/06 04:30:32;;;;;;;13.65;1.73;;;11.30;99.90;;;;;;5014999;28;20037;-68
2022/02/06 04:32:59;;;;;;;14.45;1.90;;;11.30;99.90;;;;;;5016780;28;20081;-68
2022/02/06 04:35:30;;;;;;;10.27;1.90;;;11.30;99.90;;;;;;5019088;28;20120;-69
2022/02/06 04:38:10;;;;;;;13.55;2.03;;;11.30;99.90;;;;;;5025569;28;20031;-68
2022/02/06 04:43:45;;;;;;;12.52;2.22;;;11.30;99.90;;;;;;5019383;28;20114;-68
2022/02/06 04:51:58;;;;;;;14.07;1.80;;;11.30;99.90;;;;;;5027437;28;20045;-68
2022/02/06 05:24:09;;;;;;;15.55;2.00;;;11.40;99.90;;;;;;5030099;28;20095;-68
2022/02/06 05:31:40;;;;;;;13.20;1.80;;;11.40;99.90;;;;;;5023551;28;20087;-69
2022/02/06 05:34:06;;;;;;;11.13;1.70;;;11.40;99.90;;;;;;5017834;28;20025;-68
2022/02/06 05:36:32;;;;;;;10.45;1.52;;;11.40;99.90;;;;;;5029434;28;20404;-68
2022/02/06 05:38:57;;;;;;;10.90;1.58;;;11.40;99.90;;;;;;5030645;28;20041;-68
2022/02/06 05:41:23;;;;;;;10.45;1.83;;;11.40;99.90;;;;;;5029255;28;20037;-69
2022/02/06 05:43:50;;;;;;;12.68;1.90;;;11.40;99.90;;;;;;5023696;28;20076;-68
2022/02/06 05:46:17;;;;;;;11.18;1.80;;;11.40;99.90;;;;;;5018380;28;20030;-68
2022/02/06 05:48:42;;;;;;;10.85;1.83;;;11.40;99.90;;;;;;5014856;28;20653;-68
2022/02/06 05:51:08;;;;;;;12.52;1.92;;;11.50;99.90;;;;;;5014022;28;20537;-68
2022/02/06 05:53:35;;;;;;;10.52;1.50;;;11.40;99.90;;;;;;5017751;28;20069;-69
2022/02/06 05:56:01;;;;;;;8.63;1.50;;;11.40;99.90;;;;;;5024894;28;20029;-69
2022/02/06 05:58:27;;;;;;;9.38;1.88;;;11.50;99.90;;;;;;5028517;28;20109;-69
2022/02/06 06:00:52;;;;;;;11.07;1.98;;;11.50;99.90;;;;;;5016481;28;20438;-68
2022/02/06 06:03:18;;;;;;;12.98;1.73;;;11.50;99.90;;;;;;5029026;28;20026;-69
2022/02/06 06:05:44;;;;;;;12.30;2.00;;;11.40;99.90;;;;;;5016973;28;20420;-69
2022/02/06 06:08:10;;;;;;;13.93;2.15;;;11.40;99.90;;;;;;5017849;28;20061;-69
2022/02/06 06:10:36;;;;;;;8.23;1.80;;;11.40;99.90;;;;;;5017809;28;20030;-68
2022/02/06 06:13:02;;;;;;;13.15;2.60;;;11.40;99.90;;;;;;5016694;28;20024;-69
2022/02/06 06:15:30;;;;;;;9.77;1.95;;;11.50;99.90;;;;;;5028815;28;20033;-69
2022/02/06 06:17:56;;;;;;;14.88;2.08;;;11.40;99.90;;;;;;5029752;28;20033;-68
2022/02/06 06:20:25;;;;;;;11.63;2.00;;;11.40;99.90;;;;;;5028422;28;20087;-68
2022/02/06 06:22:53;;;;;;;17.83;2.42;;;11.40;99.90;;;;;;5028331;28;20030;-68
2022/02/06 06:25:19;;;;;;;11.05;1.65;;;11.40;99.90;;;;;;5028454;28;20024;-68
2022/02/06 06:27:45;;;;;;;10.20;2.00;;;11.40;99.90;;;;;;5028071;28;20061;-69
2022/02/06 06:30:11;;;;;;;9.52;1.90;;;11.40;99.90;;;;;;5029405;28;20052;-68
2022/02/06 06:32:37;;;;;;;13.43;2.00;;;11.40;99.90;;;;;;5029017;28;20037;-69
2022/02/06 06:35:04;;;;;;;10.43;2.00;;;11.40;99.90;;;;;;5028290;28;20022;-68
2022/02/06 06:37:31;;;;;;;12.95;2.00;;;11.40;99.90;;;;;;5027936;28;20040;-68
2022/02/06 06:39:57;;;;;;;15.02;2.35;;;11.40;99.90;;;;;;5028246;28;20036;-69
2022/02/06 06:42:23;;;;;;;13.25;2.55;;;11.50;99.90;;;;;;5012723;28;20038;-69
2022/02/06 06:44:48;;;;;;;14.35;2.42;;;11.50;99.90;;;;;;5015866;28;20571;-66
2022/02/06 06:47:14;;;;;;;16.30;2.50;;;11.50;99.90;;;;;;5016790;28;20417;-69
2022/02/06 06:49:41;;;;;;;17.58;2.33;;;11.40;99.90;;;;;;5017146;28;20049;-68
2022/02/06 06:52:08;;;;;;;16.45;2.40;;;11.50;99.90;;;;;;5016314;28;20037;-69
2022/02/06 06:54:38;;;;;;;16.45;2.03;;;11.50;99.90;;;;;;5012365;28;20037;-68
2022/02/06 06:57:30;;;;;;;15.18;2.15;;;11.50;99.90;;;;;;5025534;28;20397;-68
2022/02/06 07:02:19;;;;;;;15.98;2.60;;;11.60;99.90;;;;;;5018538;28;20041;-68
2022/02/06 07:04:47;;;;;;;16.08;2.85;;;11.50;99.90;;;;;;5021837;28;20040;-68
2022/02/06 07:07:13;;;;;;;14.88;2.40;;;11.50;99.90;;;;;;5028580;28;20443;-68
2022/02/06 07:09:39;;;;;;;13.90;2.05;;;11.50;99.90;;;;;;5028655;28;20044;-68
2022/02/06 07:12:07;;;;;;;15.18;2.50;;;11.60;99.90;;;;;;5013561;28;20026;-68
2022/02/06 07:14:33;;;;;;;14.65;2.30;;;11.60;99.90;;;;;;5028274;28;20455;-68
2022/02/06 07:16:58;;;;;;;18.42;2.45;;;11.60;99.90;;;;;;5026923;28;20041;-68
2022/02/06 07:19:27;;;;;;;18.63;2.65;;;11.60;99.90;;;;;;5026133;28;20064;-68
2022/02/06 07:21:54;;;;;;;15.95;2.08;;;11.60;99.90;;;;;;5014540;28;20025;-68
2022/02/06 07:24:21;;;;;;;15.57;2.20;;;11.70;99.90;;;;;;5028300;28;20056;-69
2022/02/06 07:26:50;;;;;;;15.27;2.08;;;11.70;99.90;;;;;;5028779;28;20026;-69
2022/02/06 07:29:17;;;;;;;19.05;2.25;;;11.70;99.90;;;;;;5018747;28;20574;-69
2022/02/06 07:31:45;;;;;;;16.33;2.40;;;11.70;99.90;;;;;;5016369;28;20045;-68
2022/02/06 07:34:11;;;;;;;13.43;1.98;;;11.70;99.90;;;;;;5017108;28;20028;-68
2022/02/06 07:36:37;;;;;;;13.00;2.28;;;11.70;99.90;;;;;;5027798;28;20038;-69
2022/02/06 07:39:03;;;;;;;15.27;1.92;;;11.80;99.90;;;;;;5026848;28;20072;-68
2022/02/06 07:41:29;;;;;;;13.88;2.15;;;11.80;99.90;;;;;;5020468;28;20501;-68
2022/02/06 07:43:55;;;;;;;13.15;2.72;;;11.80;99.90;;;;;;5026273;28;20053;-69
2022/02/06 07:46:29;;;;;;;16.15;1.95;;;11.80;99.90;;;;;;5031516;28;20120;-68
2022/02/06 07:48:57;;;;;;;13.45;1.80;;;11.80;99.90;;;;;;5031439;28;20045;-68
2022/02/06 07:51:23;;;;;;;14.73;2.85;;;11.80;99.90;;;;;;5031482;28;20120;-68
2022/02/06 07:53:49;;;;;;;14.25;2.38;;;11.80;99.90;;;;;;5018972;28;20129;-69
2022/02/06 07:56:14;;;;;;;11.80;2.15;;;11.80;99.90;;;;;;5028784;28;20034;-69
2022/02/06 07:58:40;;;;;;;13.93;1.75;;;11.80;99.90;;;;;;5031057;28;20036;-68
2022/02/06 08:01:06;;;;;;;14.52;2.00;;;11.80;99.90;;;;;;5030991;28;20696;-68
2022/02/06 08:03:31;;;;;;;15.00;2.05;;;11.80;99.90;;;;;;5031593;28;20025;-68
2022/02/06 08:05:58;;;;;;;13.55;1.88;;;11.90;99.90;;;;;;5017684;28;20036;-68
2022/02/06 08:08:23;;;;;;;9.93;1.67;;;11.90;99.90;;;;;;5029763;28;20081;-68
2022/02/06 08:10:50;;;;;;;10.13;1.98;;;11.90;99.90;;;;;;5025489;28;20057;-68
2022/02/06 08:13:25;;;;;;;12.52;1.75;;;11.90;99.90;;;;;;5020684;28;20496;-68
2022/02/06 08:15:51;;;;;;;12.82;1.70;;;11.90;99.90;;;;;;5031002;28;20112;-69
2022/02/06 08:18:17;;;;;;;8.10;1.40;;;11.90;99.90;;;;;;5015282;28;20117;-68
2022/02/06 08:20:43;;;;;;;13.32;1.52;;;12.00;99.90;;;;;;5031913;28;20060;-68
2022/02/06 08:23:09;;;;;;;11.48;1.80;;;12.00;99.90;;;;;;5022629;28;20037;-68
2022/02/06 08:25:35;;;;;;;13.25;1.70;;;12.00;99.90;;;;;;5019992;28;20029;-68
2022/02/06 08:28:01;;;;;;;12.95;1.60;;;12.10;99.90;;;;;;5018419;28;20061;-68
2022/02/06 08:30:29;;;;;;;12.68;2.00;;;12.10;99.40;;;;;;5030767;28;20045;-69
2022/02/06 08:32:56;;;;;;;13.27;1.83;;;12.10;99.20;;;;;;5017266;28;20390;-68
2022/02/06 08:35:23;;;;;;;13.45;1.77;;;12.10;99.00;;;;;;5029554;28;20087;-68
2022/02/06 08:37:50;;;;;;;9.52;1.42;;;12.10;99.10;;;;;;5023928;28;20465;-68
2022/02/06 08:40:16;;;;;;;11.10;1.50;;;12.10;98.90;;;;;;5019138;28;20021;-68
2022/02/06 08:42:44;;;;;;;7.93;1.30;;;12.10;98.50;;;;;;5014246;28;20080;-68
2022/02/06 08:45:15;;;;;;;12.43;1.48;;;12.10;98.40;;;;;;5014908;28;20104;-68
2022/02/06 08:47:46;;;;;;;7.93;1.33;;;12.20;97.70;;;;;;5030672;28;20021;-68
2022/02/06 08:50:12;;;;;;;7.63;1.33;;;12.20;97.50;;;;;;5029449;28;20108;-68
2022/02/06 08:52:38;;;;;;;8.32;1.30;;;12.20;97.30;;;;;;5025361;28;20034;-68
2022/02/06 08:55:08;;;;;;;8.20;1.58;;;12.20;97.00;;;;;;5018340;28;20033;-68
2022/02/06 08:57:35;;;;;;;10.60;1.60;;;12.30;96.90;;;;;;5014016;28;20636;-68
2022/02/06 09:00:03;;;;;;;7.63;1.33;;;12.30;96.70;;;;;;5016232;28;20076;-68
2022/02/06 09:02:28;;;;;;;9.40;1.50;;;12.30;96.60;;;;;;5019178;28;20034;-68
2022/02/06 09:04:54;;;;;;;12.18;1.73;;;12.30;96.40;;;;;;5018966;28;20032;-68
2022/02/06 09:07:20;;;;;;;9.23;2.03;;;12.30;96.50;;;;;;5020021;28;20033;-68
2022/02/06 09:09:48;;;;;;;8.00;1.38;;;12.40;96.50;;;;;;5029302;28;20087;-68
2022/02/06 09:12:16;;;;;;;10.07;1.63;;;12.40;96.60;;;;;;5013853;28;20501;-68
2022/02/06 09:14:42;;;;;;;8.20;1.67;;;12.40;96.80;;;;;;5030977;28;20025;-68
2022/02/06 09:17:09;;;;;;;12.43;1.92;;;12.40;96.80;;;;;;5022112;28;20080;-68
2022/02/06 09:19:36;;;;;;;16.98;1.98;;;12.40;97.10;;;;;;5018648;28;20014;-69
2022/02/06 09:22:04;;;;;;;12.70;1.73;;;12.40;97.40;;;;;;5024779;28;20025;-68
2022/02/06 09:24:29;;;;;;;14.18;1.90;;;12.40;97.60;;;;;;5014209;28;20064;-68
2022/02/06 09:26:56;;;;;;;12.73;2.22;;;12.50;97.90;;;;;;5016083;28;20057;-68
2022/02/06 09:29:22;;;;;;;13.18;1.67;;;12.50;98.00;;;;;;5028355;28;20030;-69
2022/02/06 09:31:52;;;;;;;12.38;2.13;;;12.50;98.10;;;;;;5029433;28;20029;-68
2022/02/06 09:36:46;;;;;;;13.38;2.00;;;12.60;98.00;;;;;;5014883;28;20061;-68
2022/02/06 09:39:12;;;;;;;13.52;2.00;;;12.60;98.00;;;;;;5013930;28;20080;-68
2022/02/06 09:41:46;;;;;;;13.90;2.78;;;12.60;97.90;;;;;;5017732;28;20129;-68
2022/02/06 09:44:16;;;;;;;15.20;2.10;;;12.60;98.00;;;;;;5026844;28;20064;-68
2022/02/06 09:46:45;;;;;;;13.90;2.38;;;12.60;97.90;;;;;;5024813;28;20061;-68
2022/02/06 09:49:13;;;;;;;14.88;2.95;;;12.60;98.00;;;;;;5018464;28;20038;-68
2022/02/06 09:51:42;;;;;;;14.27;2.40;;;12.50;97.90;;;;;;5029383;28;20026;-68
2022/02/06 09:54:09;;;;;;;17.50;2.50;;;12.60;97.70;;;;;;5013575;28;20112;-68
2022/02/06 09:56:42;;;;;;;13.55;2.10;;;12.60;97.50;;;;;;5017777;28;20030;-68
2022/02/06 09:59:17;;;;;;;14.75;2.58;;;12.70;97.20;;;;;;5017942;28;20033;-68
2022/02/06 10:01:45;;;;;;;11.13;1.92;;;12.80;96.50;;;;;;5021434;28;20025;-68
2022/02/06 10:04:16;;;;;;;13.70;2.28;;;12.80;96.10;;;;;;5026211;28;20029;-68
2022/02/06 10:07:05;;;;;;;16.52;2.67;;;12.90;96.10;;;;;;5029047;28;20516;-69
2022/02/06 10:09:40;;;;;;;17.63;2.10;;;12.90;95.60;;;;;;5012446;28;20107;-67
2022/02/06 10:12:07;;;;;;;12.45;1.80;;;13.00;95.60;;;;;;5026579;28;20026;-68
2022/02/06 10:14:36;;;;;;;11.73;2.13;;;13.10;94.90;;;;;;5029202;28;20160;-68
2022/02/06 10:17:03;;;;;;;14.95;2.03;;;13.10;95.20;;;;;;5028171;28;20613;-68
2022/02/06 10:19:30;;;;;;;11.18;2.75;;;13.10;95.00;;;;;;5028414;28;20037;-66
2022/02/06 10:21:56;;;;;;;12.68;1.70;;;13.10;95.30;;;;;;5028446;28;20550;-68
2022/02/06 10:24:33;;;;;;;13.07;2.60;;;13.10;95.30;;;;;;5012339;28;20080;-68
2022/02/06 10:29:43;;;;;;;12.63;2.28;;;13.20;95.30;;;;;;5017181;28;20037;-68
2022/02/06 10:32:16;;;;;;;15.48;2.58;;;13.30;95.30;;;;;;5025275;28;20057;-67
2022/02/06 10:34:42;;;;;;;14.60;3.30;;;13.30;95.20;;;;;;5028579;28;20026;-69
2022/02/06 10:37:14;;;;;;;14.73;2.53;;;13.40;95.30;;;;;;5028419;28;20033;-68
2022/02/06 10:39:52;;;;;;;11.63;2.47;;;13.40;95.40;;;;;;5012952;28;20025;-68
2022/02/06 10:42:27;;;;;;;12.63;3.00;;;13.40;95.60;;;;;;5012688;28;20448;-68
2022/02/06 10:45:19;;;;;;;13.73;2.63;;;13.40;96.00;;;;;;5014138;28;20046;-68
2022/02/06 10:47:46;;;;;;;11.10;2.25;;;13.30;96.50;;;;;;5028948;28;20033;-68
2022/02/06 10:50:26;;;;;;;7.38;1.67;;;13.30;96.70;;;;;;5028044;28;20124;-68
2022/02/06 10:53:15;;;;;;;15.03;2.50;;;13.50;96.80;;;;;;5026881;28;20128;-68
2022/02/06 10:56:00;;;;;;;15.63;2.30;;;13.50;97.00;;;;;;5023669;28;20048;-68
2022/02/06 10:58:31;;;;;;;10.02;1.50;;;13.50;97.10;;;;;;5016944;28;20025;-68
2022/02/06 11:00:58;;;;;;;11.60;1.92;;;13.50;97.30;;;;;;5015576;28;20025;-68
2022/02/06 11:03:35;;;;;;;10.90;1.85;;;13.50;97.40;;;;;;5012412;28;20042;-68
2022/02/06 11:06:10;;;;;;;16.33;6.18;;;13.50;97.80;;;;;;5029262;28;20022;-68
2022/02/06 11:08:39;;;;;;;15.55;2.13;;;13.50;98.10;;;;;;5016332;28;20101;-69
2022/02/06 11:11:09;;;;;;;13.20;2.30;;;13.40;98.70;;;;;;5024127;28;20108;-68
2022/02/06 11:13:36;;;;;;;13.00;2.13;;;13.40;99.00;;;;;;5029400;28;20025;-68
2022/02/06 11:16:15;;;;;;;10.82;1.95;;;13.40;98.80;;;;;;5032215;28;20045;-68
2022/02/06 11:18:54;;;;;;;10.43;1.48;;;13.40;99.40;;;;;;5016936;28;20026;-68
2022/02/06 11:21:20;;;;;;;11.23;2.13;;;13.40;99.90;;;;;;5031766;28;20025;-68
2022/02/06 11:23:48;;;;;;;12.85;2.10;;;13.50;99.90;;;;;;5019490;28;20069;-68
2022/02/06 11:26:17;;;;;;;14.90;2.35;;;13.60;99.90;;;;;;5029339;28;20033;-68
2022/02/06 11:28:43;;;;;;;14.88;4.07;;;13.60;99.90;;;;;;5031818;28;20022;-68
2022/02/06 11:31:09;;;;;;;21.35;7.00;;;13.60;99.90;;;;;;5031851;28;20470;-68
2022/02/06 11:33:35;;;;;;;14.10;4.80;;;13.70;99.80;;;;;;5016376;28;20056;-68
2022/02/06 11:36:08;;;;;;;21.95;5.97;;;13.70;99.70;;;;;;5017426;28;20077;-68
2022/02/06 11:44:19;;;;;;;11.60;3.63;;;14.20;97.30;;;;;;5020415;28;20041;-68
2022/02/06 11:46:58;;;;;;;10.32;1.90;;;14.30;97.10;;;;;;5020405;28;20029;-68
2022/02/06 11:49:25;;;;;;;12.90;3.30;;;14.30;96.50;;;;;;5020656;28;20029;-68
2022/02/06 11:51:57;;;;;;;11.40;3.65;;;14.30;96.70;;;;;;5017503;28;20802;-68
2022/02/06 11:54:31;;;;;;;10.50;2.47;;;14.20;97.20;;;;;;5031769;28;20064;-68
2022/02/06 11:57:18;;;;;;;12.25;3.10;;;14.30;97.30;;;;;;5017964;28;20117;-68
2022/02/06 12:00:06;;;;;;;13.13;2.60;;;14.50;96.20;;;;;;5028923;28;20045;-68
2022/02/06 12:02:32;;;;;;;14.10;2.65;;;14.70;95.60;;;;;;5020262;28;20162;-68
2022/02/06 12:05:21;;;;;;;9.07;2.10;;;14.50;96.40;;;;;;5026224;28;20106;-68
2022/02/06 12:07:52;;;;;;;9.50;1.80;;;14.20;97.70;;;;;;5031211;28;20064;-68
2022/02/06 12:10:18;;;;;;;7.97;1.50;;;14.00;98.90;;;;;;5030219;28;20107;-68
2022/02/06 12:12:46;;;;;;;9.10;1.80;;;13.90;99.70;;;;;;5016568;28;20032;-68
2022/02/06 12:15:27;;;;;;;12.65;1.73;;;14.10;99.90;;;;;;5014220;28;20105;-68
2022/02/06 12:18:11;;;;;;;8.35;1.55;;;14.40;99.00;;;;;;5029416;28;20033;-68
2022/02/06 12:20:50;;;;;;;8.43;1.70;;;14.70;96.90;;;;;;5019617;28;20115;-68
2022/02/06 12:23:39;;;;;;;10.48;1.73;;;15.20;95.20;;;;;;5019598;28;20116;-68
2022/02/06 12:26:30;;;;;;;11.77;2.20;;;16.00;91.70;;;;;;5018539;28;20497;-68
2022/02/06 12:29:03;;;;;;;;;;;16.40;90.00;;;;;;5026145;28;20030;-68
2022/02/06 12:31:34;;;;;;;8.40;1.50;;;16.70;86.40;;;;;;5030611;28;19913;-67
2022/02/06 12:37:07;;;;;;;8.13;1.70;;;17.60;78.80;;;;;;5030631;28;20072;-69
2022/02/06 12:39:34;;;;;;;10.23;1.80;;;18.10;74.10;;;;;;5029713;28;20083;-68
2022/02/06 12:42:02;;;;;;;12.20;1.80;;;18.60;69.70;;;;;;5016869;28;20030;-69
2022/02/06 12:44:30;;;;;;;11.25;2.17;;;18.50;69.00;;;;;;5028337;28;20448;-69
2022/02/06 12:46:59;;;;;;;8.20;1.60;;;19.90;63.90;;;;;;5030251;28;20034;-69
2022/02/06 12:49:34;;;;;;;9.02;1.80;;;20.10;60.70;;;;;;5028356;28;20029;-68
2022/02/06 12:52:01;;;;;;;8.88;1.83;;;19.60;62.00;;;;;;5026269;28;20060;-69
2022/02/06 12:54:27;;;;;;;10.25;1.85;;;19.60;62.40;;;;;;5014128;28;20022;-68
2022/02/06 12:56:57;;;;;;;9.68;1.67;;;19.90;59.80;;;;;;5031329;28;20048;-69
2022/02/06 12:59:24;;;;;;;;;;;19.40;61.60;;;;;;5020506;28;20030;-69
2022/02/06 13:01:53;;;;;;;9.07;1.70;;;19.00;63.30;;;;;;5019020;28;19909;-68
2022/02/06 13:04:26;;;;;;;12.13;2.08;;;18.80;63.90;;;;;;5018937;28;20029;-69
2022/02/06 13:06:53;;;;;;;10.90;1.77;;;18.40;66.40;;;;;;5016434;28;20030;-68
2022/02/06 13:09:20;;;;;;;11.82;2.08;;;18.20;67.60;;;;;;5030237;28;20102;-69
2022/02/06 13:12:04;;;;;;;10.50;1.92;;;18.40;66.90;;;;;;5018207;28;20026;-69
2022/02/06 13:17:25;;;;;;;13.85;2.15;;;19.70;60.00;;;;;;5021649;28;20521;-69
2022/02/06 13:31:07;;;;;;;15.02;2.20;;;22.00;49.90;;;;;;5029978;28;20507;-69
2022/02/06 13:33:53;;;;;;;14.65;2.50;;;22.00;49.80;;;;;;5029205;28;20527;-68
2022/02/06 13:36:40;;;;;;;16.92;2.60;;;21.00;51.80;;;;;;5027105;28;20033;-69
2022/02/06 13:39:13;;;;;;;15.68;2.60;;;20.10;54.10;;;;;;5014879;28;20029;-69
2022/02/06 13:41:40;;;;;;;13.85;2.33;;;19.40;57.10;;;;;;5018190;28;20117;-69
2022/02/06 13:44:14;;;;;;;16.13;2.20;;;18.90;59.80;;;;;;5018205;28;20129;-69
2022/02/06 13:46:42;;;;;;;14.13;2.45;;;18.30;62.10;;;;;;5022125;28;20063;-68
2022/02/06 13:49:08;;;;;;;16.33;2.40;;;18.00;64.50;;;;;;5029209;28;20037;-69
2022/02/06 13:51:48;;;;;;;18.05;2.30;;;17.70;65.60;;;;;;5013105;28;20116;-68
2022/02/06 13:54:15;;;;;;;15.30;2.10;;;17.30;67.80;;;;;;5026647;28;20025;-68
2022/02/06 13:56:41;;;;;;;16.73;2.78;;;17.00;69.80;;;;;;5028429;28;20128;-68
2022/02/06 13:59:10;;;;;;;19.08;2.63;;;16.80;71.90;;;;;;5026699;28;20109;-68
2022/02/06 14:01:51;;;;;;;17.55;2.72;;;16.50;74.00;;;;;;5028896;28;20646;-68
2022/02/06 14:04:36;;;;;;;19.23;3.20;;;16.30;76.20;;;;;;5028713;28;20033;-68
2022/02/06 14:07:10;;;;;;;15.10;2.33;;;16.30;77.30;;;;;;5028812;28;20404;-68
2022/02/06 14:12:10;;;;;;;18.48;3.20;;;16.10;77.80;;;;;;5026181;28;20038;-68
2022/02/06 14:14:47;;;;;;;16.90;2.78;;;16.00;78.90;;;;;;5017901;28;20504;-68
2022/02/06 14:17:18;;;;;;;13.95;2.20;;;15.90;79.40;;;;;;5017546;28;20038;-68
2022/02/06 14:19:47;;;;;;;;;;;15.90;79.60;;;;;;5018334;28;20515;-68
2022/02/06 14:22:31;;;;;;;18.95;2.88;;;15.80;79.50;;;;;;5017835;28;19909;-68
2022/02/06 14:25:03;;;;;;;13.55;2.40;;;15.70;81.90;;;;;;5028571;28;20041;-68
2022/02/06 14:27:44;;;;;;;16.45;2.53;;;15.60;83.50;;;;;;5028685;28;20079;-69
2022/02/06 14:30:10;;;;;;;;;;;15.60;83.90;;;;;;5025923;28;20025;-67
2022/02/06 14:32:36;;;;;;;15.80;2.60;;;15.50;84.60;;;;;;5017936;28;19905;-68
2022/02/06 14:35:10;;;;;;;13.52;1.95;;;15.50;86.00;;;;;;5017389;28;20029;-68
2022/02/06 14:37:43;;;;;;;16.67;2.42;;;15.30;87.20;;;;;;5020399;28;20452;-68
2022/02/06 14:40:23;;;;;;;20.13;2.67;;;15.30;88.40;;;;;;5028474;28;20536;-68
2022/02/06 14:42:52;;;;;;;15.63;2.50;;;15.20;89.70;;;;;;5014323;28;20562;-68
2022/02/06 14:45:18;;;;;;;16.08;2.35;;;15.30;90.50;;;;;;5028087;28;20056;-68
2022/02/06 14:47:43;;;;;;;14.55;2.05;;;15.30;90.60;;;;;;5028845;28;20033;-68
2022/02/06 14:50:20;;;;;;;15.65;2.20;;;15.20;91.10;;;;;;5020094;28;20109;-68
2022/02/06 14:52:47;;;;;;;16.02;2.75;;;15.20;91.50;;;;;;5016986;28;20026;-68
2022/02/06 14:55:13;;;;;;;17.25;2.58;;;15.20;91.70;;;;;;5023777;28;20056;-68
2022/02/06 14:57:40;;;;;;;18.55;2.60;;;15.10;91.70;;;;;;5025372;28;20104;-68
2022/02/06 15:00:07;;;;;;;17.10;3.05;;;15.20;91.60;;;;;;5013923;28;20076;-68
2022/02/06 15:02:33;;;;;;;16.98;2.45;;;15.30;91.10;;;;;;5028299;28;20022;-68
2022/02/06 15:04:59;;;;;;;18.45;2.83;;;15.50;90.20;;;;;;5028255;28;20028;-68
2022/02/06 15:07:26;;;;;;;18.88;2.55;;;15.50;90.40;;;;;;5028123;28;20395;-68
2022/02/06 15:09:53;;;;;;;18.10;2.40;;;15.60;90.00;;;;;;5028026;28;20486;-68
2022/02/06 15:12:18;;;;;;;14.85;2.30;;;15.70;89.10;;;;;;5028516;28;20052;-68
2022/02/06 15:14:45;;;;;;;17.52;2.70;;;15.70;90.20;;;;;;5016512;28;20398;-68
2022/02/06 15:17:11;;;;;;;17.08;2.63;;;15.80;88.90;;;;;;5016776;28;20144;-68
2022/02/06 15:19:37;;;;;;;19.77;2.60;;;16.10;86.70;;;;;;5016923;28;20064;-68
2022/02/06 15:22:03;;;;;;;19.15;2.47;;;16.00;86.50;;;;;;5024178;28;20774;-69
2022/02/06 15:24:29;;;;;;;14.85;2.40;;;16.00;87.50;;;;;;5028265;28;20034;-68
2022/02/06 15:26:56;;;;;;;16.35;2.75;;;15.90;88.00;;;;;;5015000;28;20060;-68